Seago Piraeus — OXVD2 — position and weather

sailwx.info

Track history (hours):
 
Tides and Currents Weather Stations Pressure Air Temp Water Temp Dewpoint Dewpoint Depression Visibility Wind Speed Wind Dir Waves Ship Positions

Seago Piraeus

Last reported at 2017-Mar-23 21:14 UTC. Time now 2017-Mar-24 08:14 UTC.
Position N 31°52' E 034°37'.

Length 294 m; draft 11.1 m.

Type: Ship (hazmat cat A). MMSI: 219117000.

Date/timePositionNaut miles runAvg speedWind from/ knotsBaromVisibWave heightAir tempDewpointWater temp
2017-Mar-23 21:14N 31°52' E 034°37'4 0.4
2017-Mar-23 11:12N 31°49' E 034°34'4 1.8
2017-Mar-23 09:00N 31°48' E 034°30'4 1.1 320 / 121009.5 5.4 21.214.017.2
2017-Mar-23 05:30N 31°49' E 034°34'0 0.0
2017-Mar-23 02:33N 31°49' E 034°34'0 0.0
2017-Mar-23 01:30N 31°49' E 034°34'0 0.1
2017-Mar-23 00:33N 31°49' E 034°34'0 0.0
2017-Mar-22 23:21N 31°49' E 034°34'0 0.0
2017-Mar-22 22:12N 31°49' E 034°34'0 0.0
2017-Mar-22 21:33N 31°49' E 034°34'4 7.0
2017-Mar-22 21:00N 31°48' E 034°30'4 8.7 020 / 81008.710.8 17.415.018.3
2017-Mar-22 20:33N 31°49' E 034°34'0 0.0
2017-Mar-22 18:30N 31°49' E 034°34'6 4.1
2017-Mar-22 17:05N 31°53' E 034°29'712.3
2017-Mar-22 16:33N 31°55' E 034°22'1212.3
2017-Mar-22 15:33N 32°00' E 034°09'1712.2
2017-Mar-22 14:12N 32°07' E 033°51'912.0
2017-Mar-22 13:27N 32°08' E 033°41'1913.2
2017-Mar-22 12:00N 32°06' E 033°18'3611.9 090 / 91008.9 5.4 20.013.017.1
2017-Mar-22 09:00N 32°06' E 032°36'   080 / 121010.3 5.4 20.014.916.8
2017-Mar-19 09:00N 31°12' E 029°36'118 2.6 310 / 121017.710.8 17.0 7.016.5
2017-Mar-17 12:00N 32°12' E 031°36'3712.5 060 / 121014.2 2.2 18.0 8.317.0
2017-Mar-17 09:00N 32°24' E 032°18'13012.4 270 / 61015.210.8 18.417.816.8
2017-Mar-16 22:30N 32°55' E 034°48'1111.5
2017-Mar-16 21:33N 32°51' E 035°00'2 1.8
2017-Mar-16 20:27N 32°49' E 035°01'0 0.0
2017-Mar-16 19:33N 32°49' E 035°01'0 0.0
2017-Mar-16 18:30N 32°49' E 035°01'0 0.0
2017-Mar-16 17:33N 32°49' E 035°01'0 0.0
2017-Mar-16 16:33N 32°49' E 035°01'0 0.0
2017-Mar-16 15:33N 32°49' E 035°01'0 0.0
2017-Mar-16 14:33N 32°49' E 035°01'0 0.0
2017-Mar-16 13:33N 32°49' E 035°01'0 0.0
2017-Mar-16 12:31N 32°49' E 035°01'0 0.0
2017-Mar-16 11:34N 32°49' E 035°01'0 0.0
2017-Mar-16 10:34N 32°49' E 035°01'2 2.0
2017-Mar-16 09:33N 32°51' E 035°00'3 3.0
2017-Mar-16 08:34N 32°52' E 034°57'8 7.9
2017-Mar-16 07:33N 32°47' E 034°49'1111.1
2017-Mar-16 06:33N 32°37' E 034°46'1110.8
2017-Mar-16 05:33N 32°27' E 034°42'1110.7
2017-Mar-16 04:34N 32°16' E 034°38'1110.7
2017-Mar-16 03:33N 32°06' E 034°35'14 0.5
2017-Mar-15 02:31N 31°52' E 034°32'1815.4
2017-Mar-15 01:23N 32°07' E 034°20'14816.7
2017-Mar-14 16:33N 34°24' E 033°13'1716.5
2017-Mar-14 15:33N 34°38' E 033°04'2 0.6
2017-Mar-14 11:09N 34°39' E 033°01'0 0.0
2017-Mar-13 22:33N 34°39' E 033°01'2 1.6
2017-Mar-13 21:33N 34°39' E 033°03'  
Track history (hours):
 
Tides and Currents Weather Stations Pressure Air Temp Water Temp Dewpoint Dewpoint Depression Visibility Wind Speed Wind Dir Waves Ship Positions

Seago Piraeus

Last reported at 2017-Mar-23 21:14 UTC. Time now 2017-Mar-24 08:14 UTC.
Position N 31°52' E 034°37'.

Length 294 m; draft 11.1 m.

Type: Ship (hazmat cat A). MMSI: 219117000.

Date/timePositionNaut miles runAvg speedWind from/ knotsBaromVisibWave heightAir tempDewpointWater temp
2017-Mar-23 21:14N 31°52' E 034°37'4 0.4
2017-Mar-23 11:12N 31°49' E 034°34'4 1.8
2017-Mar-23 09:00N 31°48' E 034°30'4 1.1 320 / 121009.5 5.4 21.214.017.2
2017-Mar-23 05:30N 31°49' E 034°34'0 0.0
2017-Mar-23 02:33N 31°49' E 034°34'0 0.0
2017-Mar-23 01:30N 31°49' E 034°34'0 0.1
2017-Mar-23 00:33N 31°49' E 034°34'0 0.0
2017-Mar-22 23:21N 31°49' E 034°34'0 0.0
2017-Mar-22 22:12N 31°49' E 034°34'0 0.0
2017-Mar-22 21:33N 31°49' E 034°34'4 7.0
2017-Mar-22 21:00N 31°48' E 034°30'4 8.7 020 / 81008.710.8 17.415.018.3
2017-Mar-22 20:33N 31°49' E 034°34'0 0.0
2017-Mar-22 18:30N 31°49' E 034°34'6 4.1
2017-Mar-22 17:05N 31°53' E 034°29'712.3
2017-Mar-22 16:33N 31°55' E 034°22'1212.3
2017-Mar-22 15:33N 32°00' E 034°09'1712.2
2017-Mar-22 14:12N 32°07' E 033°51'912.0
2017-Mar-22 13:27N 32°08' E 033°41'1913.2
2017-Mar-22 12:00N 32°06' E 033°18'3611.9 090 / 91008.9 5.4 20.013.017.1
2017-Mar-22 09:00N 32°06' E 032°36'   080 / 121010.3 5.4 20.014.916.8
2017-Mar-19 09:00N 31°12' E 029°36'118 2.6 310 / 121017.710.8 17.0 7.016.5
2017-Mar-17 12:00N 32°12' E 031°36'3712.5 060 / 121014.2 2.2 18.0 8.317.0
2017-Mar-17 09:00N 32°24' E 032°18'13012.4 270 / 61015.210.8 18.417.816.8
2017-Mar-16 22:30N 32°55' E 034°48'1111.5
2017-Mar-16 21:33N 32°51' E 035°00'2 1.8
2017-Mar-16 20:27N 32°49' E 035°01'0 0.0
2017-Mar-16 19:33N 32°49' E 035°01'0 0.0
2017-Mar-16 18:30N 32°49' E 035°01'0 0.0
2017-Mar-16 17:33N 32°49' E 035°01'0 0.0
2017-Mar-16 16:33N 32°49' E 035°01'0 0.0
2017-Mar-16 15:33N 32°49' E 035°01'0 0.0
2017-Mar-16 14:33N 32°49' E 035°01'0 0.0
2017-Mar-16 13:33N 32°49' E 035°01'0 0.0
2017-Mar-16 12:31N 32°49' E 035°01'0 0.0
2017-Mar-16 11:34N 32°49' E 035°01'0 0.0
2017-Mar-16 10:34N 32°49' E 035°01'2 2.0
2017-Mar-16 09:33N 32°51' E 035°00'3 3.0
2017-Mar-16 08:34N 32°52' E 034°57'8 7.9
2017-Mar-16 07:33N 32°47' E 034°49'1111.1
2017-Mar-16 06:33N 32°37' E 034°46'1110.8
2017-Mar-16 05:33N 32°27' E 034°42'1110.7
2017-Mar-16 04:34N 32°16' E 034°38'1110.7
2017-Mar-16 03:33N 32°06' E 034°35'14 0.5
2017-Mar-15 02:31N 31°52' E 034°32'1815.4
2017-Mar-15 01:23N 32°07' E 034°20'14816.7
2017-Mar-14 16:33N 34°24' E 033°13'1716.5
2017-Mar-14 15:33N 34°38' E 033°04'2 0.6
2017-Mar-14 11:09N 34°39' E 033°01'0 0.0
2017-Mar-13 22:33N 34°39' E 033°01'2 1.6
2017-Mar-13 21:33N 34°39' E 033°03'  

Dump ship's entire track history